Terminal Aerodrome Forecast
Issued by NWS Detroit/Pontiac, MI

Home | Current Version | Previous Version | Text Only | Print | Product List | Glossary On
Versions: 1 2 3 4 5 6 7 8 9 10 11 12 13 14 15 16 17 18 19 20 21
274
FTUS43 KDTX 202320
TAFFNT
TAF
KFNT 202320Z 2100/2124 15004KT P6SM SKC
     FM210700 16003KT 5SM BR FEW040 BKN250
     FM210900 VRB03KT 3SM BR BKN035 BKN200
     FM211300 18008KT P6SM SCT040 SCT200=

USA.gov is the U.S. government's official web portal to all federal, state and local government web resources and services.